sensor_id;sensor_type;location;lat;lon;timestamp;temperature;humidity
32728;DHT22;55292;51.844;19.246;2023-04-01T00:00:08;9.50;99.90
32728;DHT22;55292;51.844;19.246;2023-04-01T00:05:34;9.50;99.90
32728;DHT22;55292;51.844;19.246;2023-04-01T00:10:37;9.30;99.90
32728;DHT22;55292;51.844;19.246;2023-04-01T00:15:43;9.30;99.90
32728;DHT22;55292;51.844;19.246;2023-04-01T00:20:48;9.20;99.90
32728;DHT22;55292;51.844;19.246;2023-04-01T00:25:50;9.10;99.90
32728;DHT22;55292;51.844;19.246;2023-04-01T00:30:53;9.00;99.90
32728;DHT22;55292;51.844;19.246;2023-04-01T00:35:55;8.90;99.90
32728;DHT22;55292;51.844;19.246;2023-04-01T00:40:58;8.90;99.90
32728;DHT22;55292;51.844;19.246;2023-04-01T00:46:02;9.00;99.90
32728;DHT22;55292;51.844;19.246;2023-04-01T00:51:07;9.00;99.90
32728;DHT22;55292;51.844;19.246;2023-04-01T00:56:23;8.90;99.90
32728;DHT22;55292;51.844;19.246;2023-04-01T01:01:29;8.90;99.90
32728;DHT22;55292;51.844;19.246;2023-04-01T01:06:49;9.00;99.90
32728;DHT22;55292;51.844;19.246;2023-04-01T01:12:16;9.00;99.90
32728;DHT22;55292;51.844;19.246;2023-04-01T01:17:30;8.90;99.90
32728;DHT22;55292;51.844;19.246;2023-04-01T01:22:45;8.90;99.90
32728;DHT22;55292;51.844;19.246;2023-04-01T01:28:44;8.90;99.90
32728;DHT22;55292;51.844;19.246;2023-04-01T01:39:06;9.00;99.90
32728;DHT22;55292;51.844;19.246;2023-04-01T01:44:11;9.10;99.90
32728;DHT22;55292;51.844;19.246;2023-04-01T01:49:17;9.20;99.90
32728;DHT22;55292;51.844;19.246;2023-04-01T01:54:20;9.20;99.90
32728;DHT22;55292;51.844;19.246;2023-04-01T01:59:24;9.10;99.90
32728;DHT22;55292;51.844;19.246;2023-04-01T02:04:29;9.10;99.90
32728;DHT22;55292;51.844;19.246;2023-04-01T02:09:32;9.10;99.90
32728;DHT22;55292;51.844;19.246;2023-04-01T02:14:45;9.10;99.90
32728;DHT22;55292;51.844;19.246;2023-04-01T02:20:05;9.10;99.90
32728;DHT22;55292;51.844;19.246;2023-04-01T02:25:15;9.00;99.90
32728;DHT22;55292;51.844;19.246;2023-04-01T02:30:21;9.00;99.90
32728;DHT22;55292;51.844;19.246;2023-04-01T02:35:25;9.00;99.90
32728;DHT22;55292;51.844;19.246;2023-04-01T02:40:28;8.90;99.90
32728;DHT22;55292;51.844;19.246;2023-04-01T02:45:30;8.80;99.90
32728;DHT22;55292;51.844;19.246;2023-04-01T02:50:33;8.70;99.90
32728;DHT22;55292;51.844;19.246;2023-04-01T02:55:36;8.70;99.90
32728;DHT22;55292;51.844;19.246;2023-04-01T03:00:39;8.60;99.90
32728;DHT22;55292;51.844;19.246;2023-04-01T03:05:41;8.50;99.90
32728;DHT22;55292;51.844;19.246;2023-04-01T03:10:44;8.30;99.90
32728;DHT22;55292;51.844;19.246;2023-04-01T03:15:47;8.30;99.90
32728;DHT22;55292;51.844;19.246;2023-04-01T03:20:49;8.40;99.90
32728;DHT22;55292;51.844;19.246;2023-04-01T03:25:52;8.40;99.90
32728;DHT22;55292;51.844;19.246;2023-04-01T03:30:55;8.40;99.90
32728;DHT22;55292;51.844;19.246;2023-04-01T03:35:58;8.50;99.90
32728;DHT22;55292;51.844;19.246;2023-04-01T03:41:01;8.50;99.90
32728;DHT22;55292;51.844;19.246;2023-04-01T03:46:05;8.50;99.90
32728;DHT22;55292;51.844;19.246;2023-04-01T03:51:08;8.50;99.90
32728;DHT22;55292;51.844;19.246;2023-04-01T03:56:11;8.30;99.90
32728;DHT22;55292;51.844;19.246;2023-04-01T04:01:19;8.20;99.90
32728;DHT22;55292;51.844;19.246;2023-04-01T04:06:25;8.10;99.90
32728;DHT22;55292;51.844;19.246;2023-04-01T04:11:30;8.10;99.90
32728;DHT22;55292;51.844;19.246;2023-04-01T04:16:35;8.00;99.90
32728;DHT22;55292;51.844;19.246;2023-04-01T04:21:40;7.90;99.90
32728;DHT22;55292;51.844;19.246;2023-04-01T04:26:43;7.90;99.90
32728;DHT22;55292;51.844;19.246;2023-04-01T04:31:46;8.00;99.90
32728;DHT22;55292;51.844;19.246;2023-04-01T04:36:48;8.10;99.90
32728;DHT22;55292;51.844;19.246;2023-04-01T04:41:52;8.10;99.90
32728;DHT22;55292;51.844;19.246;2023-04-01T04:46:55;8.10;99.90
32728;DHT22;55292;51.844;19.246;2023-04-01T04:51:59;8.20;99.90
32728;DHT22;55292;51.844;19.246;2023-04-01T04:57:03;8.30;99.90
32728;DHT22;55292;51.844;19.246;2023-04-01T05:02:11;8.30;99.90
32728;DHT22;55292;51.844;19.246;2023-04-01T05:07:15;8.50;99.90
32728;DHT22;55292;51.844;19.246;2023-04-01T05:12:18;8.60;99.90
32728;DHT22;55292;51.844;19.246;2023-04-01T05:17:40;8.50;99.90
32728;DHT22;55292;51.844;19.246;2023-04-01T05:22:44;8.60;99.90
32728;DHT22;55292;51.844;19.246;2023-04-01T05:27:47;8.60;99.90
32728;DHT22;55292;51.844;19.246;2023-04-01T05:32:50;8.70;99.90
32728;DHT22;55292;51.844;19.246;2023-04-01T05:37:52;8.70;99.90
32728;DHT22;55292;51.844;19.246;2023-04-01T05:42:56;8.70;99.90
32728;DHT22;55292;51.844;19.246;2023-04-01T05:47:59;8.70;99.90
32728;DHT22;55292;51.844;19.246;2023-04-01T05:53:06;8.90;99.90
32728;DHT22;55292;51.844;19.246;2023-04-01T05:58:08;9.10;99.90
32728;DHT22;55292;51.844;19.246;2023-04-01T06:03:13;9.20;99.90
32728;DHT22;55292;51.844;19.246;2023-04-01T06:08:17;9.20;99.90
32728;DHT22;55292;51.844;19.246;2023-04-01T06:57:02;11.20;99.90
32728;DHT22;55292;51.844;19.246;2023-04-01T07:17:56;11.70;99.90
32728;DHT22;55292;51.844;19.246;2023-04-01T07:23:03;11.40;99.90
32728;DHT22;55292;51.844;19.246;2023-04-01T07:28:29;11.20;99.90
32728;DHT22;55292;51.844;19.246;2023-04-01T07:39:33;10.90;99.90
32728;DHT22;55292;51.844;19.246;2023-04-01T07:45:14;10.50;99.90
32728;DHT22;55292;51.844;19.246;2023-04-01T07:50:27;10.50;99.90
32728;DHT22;55292;51.844;19.246;2023-04-01T07:55:51;10.50;99.90
32728;DHT22;55292;51.844;19.246;2023-04-01T08:01:05;10.90;99.90
32728;DHT22;55292;51.844;19.246;2023-04-01T08:11:40;11.70;99.90
32728;DHT22;55292;51.844;19.246;2023-04-01T08:22:42;11.20;99.90
32728;DHT22;55292;51.844;19.246;2023-04-01T08:33:25;11.50;99.90
32728;DHT22;55292;51.844;19.246;2023-04-01T08:38:49;12.10;99.90
32728;DHT22;55292;51.844;19.246;2023-04-01T08:55:28;12.60;99.90
32728;DHT22;55292;51.844;19.246;2023-04-01T09:06:42;12.30;99.90
32728;DHT22;55292;51.844;19.246;2023-04-01T09:27:54;11.60;99.90
32728;DHT22;55292;51.844;19.246;2023-04-01T09:44:18;11.60;99.90
32728;DHT22;55292;51.844;19.246;2023-04-01T11:12:35;12.50;99.90
32728;DHT22;55292;51.844;19.246;2023-04-01T11:23:08;12.70;99.90
32728;DHT22;55292;51.844;19.246;2023-04-01T11:39:13;12.70;99.90
32728;DHT22;55292;51.844;19.246;2023-04-01T11:45:16;12.30;99.90
32728;DHT22;55292;51.844;19.246;2023-04-01T11:50:30;11.50;99.90
32728;DHT22;55292;51.844;19.246;2023-04-01T12:01:50;10.60;99.90
32728;DHT22;55292;51.844;19.246;2023-04-01T12:18:40;11.20;99.90
32728;DHT22;55292;51.844;19.246;2023-04-01T13:13:32;10.50;99.90
32728;DHT22;55292;51.844;19.246;2023-04-01T13:29:25;10.80;99.90
32728;DHT22;55292;51.844;19.246;2023-04-01T13:45:42;10.90;99.90
32728;DHT22;55292;51.844;19.246;2023-04-01T14:12:50;10.40;99.90
32728;DHT22;55292;51.844;19.246;2023-04-01T14:23:34;10.00;99.90
32728;DHT22;55292;51.844;19.246;2023-04-01T14:39:15;9.40;99.90
32728;DHT22;55292;51.844;19.246;2023-04-01T14:44:41;9.30;99.90
32728;DHT22;55292;51.844;19.246;2023-04-01T14:49:51;9.20;99.90
32728;DHT22;55292;51.844;19.246;2023-04-01T14:54:54;9.10;99.90
32728;DHT22;55292;51.844;19.246;2023-04-01T15:00:17;9.00;99.90
32728;DHT22;55292;51.844;19.246;2023-04-01T15:17:13;8.70;99.90
32728;DHT22;55292;51.844;19.246;2023-04-01T15:22:06;8.80;99.90
32728;DHT22;55292;51.844;19.246;2023-04-01T15:27:27;8.70;99.90
32728;DHT22;55292;51.844;19.246;2023-04-01T15:38:07;8.60;99.90
32728;DHT22;55292;51.844;19.246;2023-04-01T15:48:44;8.60;99.90
32728;DHT22;55292;51.844;19.246;2023-04-01T15:54:16;8.40;99.90
32728;DHT22;55292;51.844;19.246;2023-04-01T16:20:23;8.10;99.90
32728;DHT22;55292;51.844;19.246;2023-04-01T16:31:04;8.00;99.90
32728;DHT22;55292;51.844;19.246;2023-04-01T16:41:31;8.00;99.90
32728;DHT22;55292;51.844;19.246;2023-04-01T16:46:43;7.90;99.90
32728;DHT22;55292;51.844;19.246;2023-04-01T16:51:57;7.70;99.90
32728;DHT22;55292;51.844;19.246;2023-04-01T17:02:14;7.80;99.90
32728;DHT22;55292;51.844;19.246;2023-04-01T17:23:37;7.50;99.90
32728;DHT22;55292;51.844;19.246;2023-04-01T17:34:40;7.40;99.90
32728;DHT22;55292;51.844;19.246;2023-04-01T17:40:15;7.50;99.90
32728;DHT22;55292;51.844;19.246;2023-04-01T17:45:37;7.60;99.90
32728;DHT22;55292;51.844;19.246;2023-04-01T17:56:32;7.40;99.90
32728;DHT22;55292;51.844;19.246;2023-04-01T18:01:52;7.30;99.90
32728;DHT22;55292;51.844;19.246;2023-04-01T18:23:02;7.40;99.90
32728;DHT22;55292;51.844;19.246;2023-04-01T18:38:39;7.30;99.90
32728;DHT22;55292;51.844;19.246;2023-04-01T18:49:20;7.20;99.90
32728;DHT22;55292;51.844;19.246;2023-04-01T18:54:30;7.10;99.90
32728;DHT22;55292;51.844;19.246;2023-04-01T18:59:39;7.10;99.90
32728;DHT22;55292;51.844;19.246;2023-04-01T19:05:04;6.90;99.90
32728;DHT22;55292;51.844;19.246;2023-04-01T19:10:31;6.90;99.90
32728;DHT22;55292;51.844;19.246;2023-04-01T19:15:41;6.80;99.90
32728;DHT22;55292;51.844;19.246;2023-04-01T19:26:01;6.70;99.90
32728;DHT22;55292;51.844;19.246;2023-04-01T19:31:38;6.60;99.90
32728;DHT22;55292;51.844;19.246;2023-04-01T19:37:05;6.50;99.90
32728;DHT22;55292;51.844;19.246;2023-04-01T19:52:59;6.20;99.90
32728;DHT22;55292;51.844;19.246;2023-04-01T20:08:45;6.10;99.90
32728;DHT22;55292;51.844;19.246;2023-04-01T20:18:58;5.90;99.90
32728;DHT22;55292;51.844;19.246;2023-04-01T20:29:35;5.80;99.90
32728;DHT22;55292;51.844;19.246;2023-04-01T21:11:50;5.30;99.90
32728;DHT22;55292;51.844;19.246;2023-04-01T21:17:26;5.30;99.90
32728;DHT22;55292;51.844;19.246;2023-04-01T21:39:05;5.10;99.90
32728;DHT22;55292;51.844;19.246;2023-04-01T21:44:36;5.20;99.90
32728;DHT22;55292;51.844;19.246;2023-04-01T21:49:56;5.10;99.90
32728;DHT22;55292;51.844;19.246;2023-04-01T22:00:53;5.00;99.90
32728;DHT22;55292;51.844;19.246;2023-04-01T22:27:01;4.70;99.90
32728;DHT22;55292;51.844;19.246;2023-04-01T22:32:06;4.70;99.90
32728;DHT22;55292;51.844;19.246;2023-04-01T22:42:28;4.60;99.90
32728;DHT22;55292;51.844;19.246;2023-04-01T22:48:04;4.50;99.90
32728;DHT22;55292;51.844;19.246;2023-04-01T22:58:34;4.50;99.90
32728;DHT22;55292;51.844;19.246;2023-04-01T23:03:41;4.50;99.90
32728;DHT22;55292;51.844;19.246;2023-04-01T23:09:06;4.50;99.90
32728;DHT22;55292;51.844;19.246;2023-04-01T23:19:47;4.40;99.90
32728;DHT22;55292;51.844;19.246;2023-04-01T23:25:12;4.40;99.90
32728;DHT22;55292;51.844;19.246;2023-04-01T23:35:59;4.30;99.90
32728;DHT22;55292;51.844;19.246;2023-04-01T23:41:20;4.30;99.90
32728;DHT22;55292;51.844;19.246;2023-04-01T23:46:29;4.20;99.90
32728;DHT22;55292;51.844;19.246;2023-04-01T23:51:39;4.20;99.90
32728;DHT22;55292;51.844;19.246;2023-04-01T23:56:51;4.30;99.90
